Cuba, OH (45114)

7:08 AM EDT on July 28, 2016 (GMT -0400)
Young farms | | Change Station

Elev 1020 ft 39.29 °N, 83.83 °W | Updated 8 minutes ago

Rain
Rain Mist
70.0 °F
Feels Like 70.0 °F
N
5.8
Wind Variable Wind from SSW

Today
High -- | Low -- °F
--% Chance of Precip.
Yesterday
High -- | Low -- °F
Precip. -- in
Pressure 29.90 in
Visibility 4.0 miles
Clouds Overcast 11000 ft
Dew Point 70 °F
Humidity 99%
Rainfall 0.35 in
Snow Depth Not available.
6:32 AM 8:51 PM
Waning Crescent, 33% visible
METAR KILN 281054Z AUTO 20008KT 4SM RA BR OVC110 22/22 A2994 RMK AO2 LTG DSNT SE-W SLP123 P0009 T02220217
Pressure 29.90 in
Visibility 4.0 miles
Clouds Overcast 11000 ft
Dew Point 70 °F
Humidity 99%
Rainfall 0.35 in
Snow Depth Not available.
6:32 AM 8:51 PM
Waning Crescent, 33% visible
METAR KILN 281054Z AUTO 20008KT 4SM RA BR OVC110 22/22 A2994 RMK AO2 LTG DSNT SE-W SLP123 P0009 T02220217

10-Day Weather Forecast

Almanac

Astronomy

Jul. 28, 2016 Rise Set
Actual Time
Civil Twilight
Nautical Twilight
Astronomical Twilight
Moon
Length of Visible Light
Length of Day
Tomorrow will be .
, % of the Moon is Illuminated

Today's Extremes

State Highs State Lows

Community

WunderPhotos

Upload Photos

1,928,082 photos uploaded!

WunderBlog® & News

Nearby

Air Quality

  Air Quality AQ Index Pollutant
Not available.

Snow Depth

Station Depth Elevation

Earthquake Activity

City Distance Mag. Time & Date
Minimum magnitude displayed is 2.5.

Coastal Water Temperatures

Place Temperature

Stations

Nearby Weather Stations

Station Location Temp. Windchill Dew Point Humidity Wind Precip. Elev Updated Type
                   

Watches & Warnings

There are currently no watches in effect.